sensor_id;sensor_type;location;lat;lon;timestamp;temperature;humidity
4312;DHT22;2169;49.086;9.284;2022-10-03T00:04:07;13.70;78.60
4312;DHT22;2169;49.086;9.284;2022-10-03T00:06:42;13.70;78.60
4312;DHT22;2169;49.086;9.284;2022-10-03T00:09:21;13.70;78.70
4312;DHT22;2169;49.086;9.284;2022-10-03T00:12:01;13.70;78.60
4312;DHT22;2169;49.086;9.284;2022-10-03T00:14:34;13.70;78.60
4312;DHT22;2169;49.086;9.284;2022-10-03T00:17:11;13.70;78.60
4312;DHT22;2169;49.086;9.284;2022-10-03T00:19:46;13.70;78.70
4312;DHT22;2169;49.086;9.284;2022-10-03T00:22:26;13.70;78.60
4312;DHT22;2169;49.086;9.284;2022-10-03T00:25:05;13.70;78.60
4312;DHT22;2169;49.086;9.284;2022-10-03T00:27:43;13.70;78.60
4312;DHT22;2169;49.086;9.284;2022-10-03T00:30:15;13.70;78.60
4312;DHT22;2169;49.086;9.284;2022-10-03T00:33:08;13.70;78.60
4312;DHT22;2169;49.086;9.284;2022-10-03T00:35:54;13.70;78.60
4312;DHT22;2169;49.086;9.284;2022-10-03T00:38:46;13.70;78.70
4312;DHT22;2169;49.086;9.284;2022-10-03T00:41:33;13.70;78.70
4312;DHT22;2169;49.086;9.284;2022-10-03T00:44:36;13.70;78.70
4312;DHT22;2169;49.086;9.284;2022-10-03T00:47:28;13.70;78.70
4312;DHT22;2169;49.086;9.284;2022-10-03T00:50:25;13.70;78.70
4312;DHT22;2169;49.086;9.284;2022-10-03T00:53:14;13.70;78.60
4312;DHT22;2169;49.086;9.284;2022-10-03T00:55:52;13.70;78.70
4312;DHT22;2169;49.086;9.284;2022-10-03T00:58:37;13.70;78.70
4312;DHT22;2169;49.086;9.284;2022-10-03T01:01:22;13.70;78.60
4312;DHT22;2169;49.086;9.284;2022-10-03T01:03:58;13.70;78.70
4312;DHT22;2169;49.086;9.284;2022-10-03T01:06:35;13.70;78.60
4312;DHT22;2169;49.086;9.284;2022-10-03T01:09:33;13.70;78.60
4312;DHT22;2169;49.086;9.284;2022-10-03T01:12:28;13.70;78.60
4312;DHT22;2169;49.086;9.284;2022-10-03T01:15:09;13.70;78.60
4312;DHT22;2169;49.086;9.284;2022-10-03T01:17:51;13.70;78.60
4312;DHT22;2169;49.086;9.284;2022-10-03T01:20:26;13.70;78.60
4312;DHT22;2169;49.086;9.284;2022-10-03T01:23:33;13.70;78.60
4312;DHT22;2169;49.086;9.284;2022-10-03T01:26:11;13.70;78.60
4312;DHT22;2169;49.086;9.284;2022-10-03T01:28:46;13.60;78.60
4312;DHT22;2169;49.086;9.284;2022-10-03T01:31:40;13.60;78.60
4312;DHT22;2169;49.086;9.284;2022-10-03T01:34:15;13.60;78.60
4312;DHT22;2169;49.086;9.284;2022-10-03T01:36:50;13.60;78.60
4312;DHT22;2169;49.086;9.284;2022-10-03T01:39:25;13.60;78.60
4312;DHT22;2169;49.086;9.284;2022-10-03T01:41:57;13.60;78.60
4312;DHT22;2169;49.086;9.284;2022-10-03T01:44:33;13.60;78.60
4312;DHT22;2169;49.086;9.284;2022-10-03T01:47:13;13.70;78.80
4312;DHT22;2169;49.086;9.284;2022-10-03T01:49:45;13.60;78.70
4312;DHT22;2169;49.086;9.284;2022-10-03T01:52:22;13.70;78.80
4312;DHT22;2169;49.086;9.284;2022-10-03T01:54:55;13.70;78.80
4312;DHT22;2169;49.086;9.284;2022-10-03T01:57:30;13.70;78.80
4312;DHT22;2169;49.086;9.284;2022-10-03T02:00:04;13.60;78.70
4312;DHT22;2169;49.086;9.284;2022-10-03T02:02:38;13.70;78.80
4312;DHT22;2169;49.086;9.284;2022-10-03T02:05:11;13.60;78.70
4312;DHT22;2169;49.086;9.284;2022-10-03T02:07:49;13.60;78.70
4312;DHT22;2169;49.086;9.284;2022-10-03T02:10:24;13.70;78.70
4312;DHT22;2169;49.086;9.284;2022-10-03T02:13:02;13.70;78.70
4312;DHT22;2169;49.086;9.284;2022-10-03T02:15:39;13.60;78.70
4312;DHT22;2169;49.086;9.284;2022-10-03T02:18:14;13.70;78.80
4312;DHT22;2169;49.086;9.284;2022-10-03T02:20:46;13.60;78.70
4312;DHT22;2169;49.086;9.284;2022-10-03T02:23:35;13.60;78.70
4312;DHT22;2169;49.086;9.284;2022-10-03T02:26:18;13.60;78.70
4312;DHT22;2169;49.086;9.284;2022-10-03T02:29:02;13.60;78.70
4312;DHT22;2169;49.086;9.284;2022-10-03T02:32:05;13.60;78.70
4312;DHT22;2169;49.086;9.284;2022-10-03T02:37:51;13.60;78.60
4312;DHT22;2169;49.086;9.284;2022-10-03T02:40:43;13.60;78.60
4312;DHT22;2169;49.086;9.284;2022-10-03T02:43:41;13.60;78.60
4312;DHT22;2169;49.086;9.284;2022-10-03T02:53:12;13.60;78.60
4312;DHT22;2169;49.086;9.284;2022-10-03T02:56:23;13.60;78.60
4312;DHT22;2169;49.086;9.284;2022-10-03T03:02:47;13.60;78.60
4312;DHT22;2169;49.086;9.284;2022-10-03T03:05:27;13.60;78.60
4312;DHT22;2169;49.086;9.284;2022-10-03T03:11:05;13.50;79.20
4312;DHT22;2169;49.086;9.284;2022-10-03T03:16:39;13.50;78.60
4312;DHT22;2169;49.086;9.284;2022-10-03T03:19:37;13.60;78.70
4312;DHT22;2169;49.086;9.284;2022-10-03T03:22:17;13.50;78.60
4312;DHT22;2169;49.086;9.284;2022-10-03T03:25:11;13.60;78.70
4312;DHT22;2169;49.086;9.284;2022-10-03T03:27:52;13.60;78.60
4312;DHT22;2169;49.086;9.284;2022-10-03T03:30:26;13.50;78.50
4312;DHT22;2169;49.086;9.284;2022-10-03T03:33:04;13.50;78.50
4312;DHT22;2169;49.086;9.284;2022-10-03T03:35:42;13.60;78.60
4312;DHT22;2169;49.086;9.284;2022-10-03T03:38:23;13.60;78.60
4312;DHT22;2169;49.086;9.284;2022-10-03T03:41:06;13.50;78.50
4312;DHT22;2169;49.086;9.284;2022-10-03T03:43:56;13.50;78.50
4312;DHT22;2169;49.086;9.284;2022-10-03T03:46:35;13.50;78.50
4312;DHT22;2169;49.086;9.284;2022-10-03T03:49:21;13.50;78.50
4312;DHT22;2169;49.086;9.284;2022-10-03T03:52:04;13.50;78.60
4312;DHT22;2169;49.086;9.284;2022-10-03T03:57:56;13.50;78.50
4312;DHT22;2169;49.086;9.284;2022-10-03T04:00:33;13.50;78.60
4312;DHT22;2169;49.086;9.284;2022-10-03T04:03:23;13.40;78.40
4312;DHT22;2169;49.086;9.284;2022-10-03T04:09:12;13.50;78.40
4312;DHT22;2169;49.086;9.284;2022-10-03T04:11:53;13.40;78.30
4312;DHT22;2169;49.086;9.284;2022-10-03T04:15:04;13.40;78.20
4312;DHT22;2169;49.086;9.284;2022-10-03T04:17:41;13.40;78.20
4312;DHT22;2169;49.086;9.284;2022-10-03T04:20:42;13.40;78.20
4312;DHT22;2169;49.086;9.284;2022-10-03T04:23:26;13.40;78.10
4312;DHT22;2169;49.086;9.284;2022-10-03T04:26:17;13.50;77.90
4312;DHT22;2169;49.086;9.284;2022-10-03T04:29:15;13.40;77.90
4312;DHT22;2169;49.086;9.284;2022-10-03T04:31:52;13.40;78.00
4312;DHT22;2169;49.086;9.284;2022-10-03T04:34:33;13.30;77.90
4312;DHT22;2169;49.086;9.284;2022-10-03T04:37:10;13.30;77.80
4312;DHT22;2169;49.086;9.284;2022-10-03T04:39:46;13.30;77.80
4312;DHT22;2169;49.086;9.284;2022-10-03T04:42:23;13.30;77.80
4312;DHT22;2169;49.086;9.284;2022-10-03T04:45:05;13.20;77.60
4312;DHT22;2169;49.086;9.284;2022-10-03T04:47:38;13.20;77.50
4312;DHT22;2169;49.086;9.284;2022-10-03T04:50:20;13.10;77.40
4312;DHT22;2169;49.086;9.284;2022-10-03T04:52:57;13.10;77.30
4312;DHT22;2169;49.086;9.284;2022-10-03T04:55:32;13.10;77.30
4312;DHT22;2169;49.086;9.284;2022-10-03T04:58:14;13.00;77.10
4312;DHT22;2169;49.086;9.284;2022-10-03T05:00:51;13.00;77.00
4312;DHT22;2169;49.086;9.284;2022-10-03T05:03:30;13.00;77.00
4312;DHT22;2169;49.086;9.284;2022-10-03T05:06:03;13.00;76.90
4312;DHT22;2169;49.086;9.284;2022-10-03T05:08:38;13.00;76.80
4312;DHT22;2169;49.086;9.284;2022-10-03T05:11:14;12.90;76.60
4312;DHT22;2169;49.086;9.284;2022-10-03T05:13:55;12.90;76.70
4312;DHT22;2169;49.086;9.284;2022-10-03T05:16:34;12.80;76.60
4312;DHT22;2169;49.086;9.284;2022-10-03T05:19:18;12.80;76.70
4312;DHT22;2169;49.086;9.284;2022-10-03T05:21:54;12.70;76.70
4312;DHT22;2169;49.086;9.284;2022-10-03T05:24:32;12.70;76.70
4312;DHT22;2169;49.086;9.284;2022-10-03T05:27:09;12.60;76.70
4312;DHT22;2169;49.086;9.284;2022-10-03T05:29:42;12.60;76.80
4312;DHT22;2169;49.086;9.284;2022-10-03T05:32:19;12.60;76.80
4312;DHT22;2169;49.086;9.284;2022-10-03T05:38:23;12.50;76.90
4312;DHT22;2169;49.086;9.284;2022-10-03T05:41:01;12.50;76.90
4312;DHT22;2169;49.086;9.284;2022-10-03T05:43:46;12.50;77.00
4312;DHT22;2169;49.086;9.284;2022-10-03T05:46:21;12.50;77.10
4312;DHT22;2169;49.086;9.284;2022-10-03T05:49:01;12.50;77.20
4312;DHT22;2169;49.086;9.284;2022-10-03T05:51:49;12.50;77.20
4312;DHT22;2169;49.086;9.284;2022-10-03T05:54:36;12.50;77.20
4312;DHT22;2169;49.086;9.284;2022-10-03T05:57:34;12.50;77.20
4312;DHT22;2169;49.086;9.284;2022-10-03T06:00:19;12.50;77.30
4312;DHT22;2169;49.086;9.284;2022-10-03T06:03:10;12.50;77.30
4312;DHT22;2169;49.086;9.284;2022-10-03T06:05:58;12.50;77.30
4312;DHT22;2169;49.086;9.284;2022-10-03T06:11:50;12.50;77.40
4312;DHT22;2169;49.086;9.284;2022-10-03T06:23:32;12.60;77.60
4312;DHT22;2169;49.086;9.284;2022-10-03T06:26:32;12.50;77.50
4312;DHT22;2169;49.086;9.284;2022-10-03T06:29:41;12.50;77.50
4312;DHT22;2169;49.086;9.284;2022-10-03T06:35:46;12.50;77.60
4312;DHT22;2169;49.086;9.284;2022-10-03T06:39:07;12.60;77.80
4312;DHT22;2169;49.086;9.284;2022-10-03T06:42:10;12.50;77.70
4312;DHT22;2169;49.086;9.284;2022-10-03T06:48:09;12.60;77.90
4312;DHT22;2169;49.086;9.284;2022-10-03T06:51:04;12.60;77.90
4312;DHT22;2169;49.086;9.284;2022-10-03T06:57:04;12.60;78.00
4312;DHT22;2169;49.086;9.284;2022-10-03T07:00:02;12.60;78.10
4312;DHT22;2169;49.086;9.284;2022-10-03T07:03:01;12.70;78.20
4312;DHT22;2169;49.086;9.284;2022-10-03T07:12:11;12.70;78.20
4312;DHT22;2169;49.086;9.284;2022-10-03T07:18:01;12.70;78.30
4312;DHT22;2169;49.086;9.284;2022-10-03T07:21:14;12.70;78.40
4312;DHT22;2169;49.086;9.284;2022-10-03T07:24:10;12.70;78.30
4312;DHT22;2169;49.086;9.284;2022-10-03T07:27:17;12.80;78.50
4312;DHT22;2169;49.086;9.284;2022-10-03T07:30:07;12.80;78.50
4312;DHT22;2169;49.086;9.284;2022-10-03T07:33:09;12.80;78.50
4312;DHT22;2169;49.086;9.284;2022-10-03T07:36:09;12.80;78.40
4312;DHT22;2169;49.086;9.284;2022-10-03T07:39:26;12.80;78.50
4312;DHT22;2169;49.086;9.284;2022-10-03T07:42:24;12.80;78.50
4312;DHT22;2169;49.086;9.284;2022-10-03T07:45:26;12.80;78.50
4312;DHT22;2169;49.086;9.284;2022-10-03T07:48:07;12.90;78.50
4312;DHT22;2169;49.086;9.284;2022-10-03T07:50:57;12.90;78.60
4312;DHT22;2169;49.086;9.284;2022-10-03T07:56:54;12.90;78.60
4312;DHT22;2169;49.086;9.284;2022-10-03T07:59:49;13.00;78.70
4312;DHT22;2169;49.086;9.284;2022-10-03T08:05:34;13.00;78.60
4312;DHT22;2169;49.086;9.284;2022-10-03T08:08:48;13.00;78.50
4312;DHT22;2169;49.086;9.284;2022-10-03T08:11:33;13.00;78.40
4312;DHT22;2169;49.086;9.284;2022-10-03T08:14:16;13.00;78.30
4312;DHT22;2169;49.086;9.284;2022-10-03T08:17:08;13.00;78.30
4312;DHT22;2169;49.086;9.284;2022-10-03T08:20:19;13.00;78.30
4312;DHT22;2169;49.086;9.284;2022-10-03T08:23:01;13.00;78.30
4312;DHT22;2169;49.086;9.284;2022-10-03T08:25:50;13.00;78.20
4312;DHT22;2169;49.086;9.284;2022-10-03T08:28:38;13.10;78.30
4312;DHT22;2169;49.086;9.284;2022-10-03T08:31:29;13.10;78.20
4312;DHT22;2169;49.086;9.284;2022-10-03T08:34:19;13.10;78.10
4312;DHT22;2169;49.086;9.284;2022-10-03T08:40:14;13.10;78.00
4312;DHT22;2169;49.086;9.284;2022-10-03T08:43:09;13.10;78.00
4312;DHT22;2169;49.086;9.284;2022-10-03T08:46:08;13.20;78.00
4312;DHT22;2169;49.086;9.284;2022-10-03T08:48:59;13.20;77.90
4312;DHT22;2169;49.086;9.284;2022-10-03T08:52:01;13.20;77.90
4312;DHT22;2169;49.086;9.284;2022-10-03T08:55:02;13.20;77.70
4312;DHT22;2169;49.086;9.284;2022-10-03T08:57:53;13.30;77.70
4312;DHT22;2169;49.086;9.284;2022-10-03T09:00:28;13.30;77.70
4312;DHT22;2169;49.086;9.284;2022-10-03T09:03:37;13.30;77.50
4312;DHT22;2169;49.086;9.284;2022-10-03T09:12:32;13.50;77.50
4312;DHT22;2169;49.086;9.284;2022-10-03T09:18:28;13.60;77.50
4312;DHT22;2169;49.086;9.284;2022-10-03T09:21:28;13.70;77.50
4312;DHT22;2169;49.086;9.284;2022-10-03T09:24:25;13.80;77.60
4312;DHT22;2169;49.086;9.284;2022-10-03T09:27:21;13.80;77.30
4312;DHT22;2169;49.086;9.284;2022-10-03T09:30:07;13.90;77.20
4312;DHT22;2169;49.086;9.284;2022-10-03T09:32:58;13.90;77.20
4312;DHT22;2169;49.086;9.284;2022-10-03T09:36:08;14.00;77.20
4312;DHT22;2169;49.086;9.284;2022-10-03T09:38:56;14.00;77.50
4312;DHT22;2169;49.086;9.284;2022-10-03T09:50:50;14.30;76.30
4312;DHT22;2169;49.086;9.284;2022-10-03T09:56:42;14.50;75.80
4312;DHT22;2169;49.086;9.284;2022-10-03T09:59:33;14.50;75.50
4312;DHT22;2169;49.086;9.284;2022-10-03T10:02:17;14.60;75.30
4312;DHT22;2169;49.086;9.284;2022-10-03T10:05:01;14.60;75.10
4312;DHT22;2169;49.086;9.284;2022-10-03T10:08:18;14.70;75.00
4312;DHT22;2169;49.086;9.284;2022-10-03T10:11:04;14.80;74.70
4312;DHT22;2169;49.086;9.284;2022-10-03T10:14:15;14.90;74.40
4312;DHT22;2169;49.086;9.284;2022-10-03T10:17:00;15.00;73.80
4312;DHT22;2169;49.086;9.284;2022-10-03T10:19:52;15.10;73.80
4312;DHT22;2169;49.086;9.284;2022-10-03T10:22:37;15.10;73.50
4312;DHT22;2169;49.086;9.284;2022-10-03T10:25:22;15.20;73.40
4312;DHT22;2169;49.086;9.284;2022-10-03T10:28:22;15.30;73.10
4312;DHT22;2169;49.086;9.284;2022-10-03T10:34:46;15.40;72.60
4312;DHT22;2169;49.086;9.284;2022-10-03T10:37:58;15.50;73.20
4312;DHT22;2169;49.086;9.284;2022-10-03T10:47:10;15.90;71.80
4312;DHT22;2169;49.086;9.284;2022-10-03T10:56:15;16.10;70.50
4312;DHT22;2169;49.086;9.284;2022-10-03T10:59:30;16.20;69.80
4312;DHT22;2169;49.086;9.284;2022-10-03T11:02:29;16.30;69.50
4312;DHT22;2169;49.086;9.284;2022-10-03T11:05:41;16.40;69.20
4312;DHT22;2169;49.086;9.284;2022-10-03T11:08:45;16.40;68.70
4312;DHT22;2169;49.086;9.284;2022-10-03T11:12:03;16.50;68.70
4312;DHT22;2169;49.086;9.284;2022-10-03T11:15:10;16.60;68.60
4312;DHT22;2169;49.086;9.284;2022-10-03T11:21:27;16.80;68.10
4312;DHT22;2169;49.086;9.284;2022-10-03T11:24:29;16.80;67.70
4312;DHT22;2169;49.086;9.284;2022-10-03T11:39:18;17.00;65.80
4312;DHT22;2169;49.086;9.284;2022-10-03T11:41:54;17.00;65.60
4312;DHT22;2169;49.086;9.284;2022-10-03T11:44:24;17.10;65.50
4312;DHT22;2169;49.086;9.284;2022-10-03T11:47:15;17.10;65.40
4312;DHT22;2169;49.086;9.284;2022-10-03T11:52:54;17.20;64.90
4312;DHT22;2169;49.086;9.284;2022-10-03T11:55:30;17.20;64.40
4312;DHT22;2169;49.086;9.284;2022-10-03T12:01:14;17.20;63.90
4312;DHT22;2169;49.086;9.284;2022-10-03T12:03:50;17.20;63.90
4312;DHT22;2169;49.086;9.284;2022-10-03T12:06:36;17.20;63.80
4312;DHT22;2169;49.086;9.284;2022-10-03T12:09:30;17.20;63.80
4312;DHT22;2169;49.086;9.284;2022-10-03T12:12:04;17.30;63.60
4312;DHT22;2169;49.086;9.284;2022-10-03T12:14:39;17.30;63.70
4312;DHT22;2169;49.086;9.284;2022-10-03T12:17:11;17.40;63.50
4312;DHT22;2169;49.086;9.284;2022-10-03T12:19:52;17.40;63.10
4312;DHT22;2169;49.086;9.284;2022-10-03T12:22:35;17.50;62.80
4312;DHT22;2169;49.086;9.284;2022-10-03T12:25:17;17.50;62.40
4312;DHT22;2169;49.086;9.284;2022-10-03T12:27:55;17.50;62.30
4312;DHT22;2169;49.086;9.284;2022-10-03T12:30:24;17.50;62.20
4312;DHT22;2169;49.086;9.284;2022-10-03T12:33:07;17.50;62.00
4312;DHT22;2169;49.086;9.284;2022-10-03T12:35:42;17.50;61.70
4312;DHT22;2169;49.086;9.284;2022-10-03T12:38:22;17.50;61.70
4312;DHT22;2169;49.086;9.284;2022-10-03T12:40:59;17.50;61.70
4312;DHT22;2169;49.086;9.284;2022-10-03T12:43:39;17.60;61.50
4312;DHT22;2169;49.086;9.284;2022-10-03T12:46:13;17.60;61.40
4312;DHT22;2169;49.086;9.284;2022-10-03T12:48:46;17.60;61.20
4312;DHT22;2169;49.086;9.284;2022-10-03T12:51:21;17.60;61.10
4312;DHT22;2169;49.086;9.284;2022-10-03T12:54:06;17.60;60.90
4312;DHT22;2169;49.086;9.284;2022-10-03T12:56:43;17.60;60.60
4312;DHT22;2169;49.086;9.284;2022-10-03T12:59:17;17.70;60.50
4312;DHT22;2169;49.086;9.284;2022-10-03T13:02:06;17.60;60.20
4312;DHT22;2169;49.086;9.284;2022-10-03T13:04:41;17.70;60.10
4312;DHT22;2169;49.086;9.284;2022-10-03T13:07:18;17.70;60.00
4312;DHT22;2169;49.086;9.284;2022-10-03T13:12:45;17.70;59.50
4312;DHT22;2169;49.086;9.284;2022-10-03T13:15:42;17.70;59.20
4312;DHT22;2169;49.086;9.284;2022-10-03T13:18:36;17.70;59.20
4312;DHT22;2169;49.086;9.284;2022-10-03T13:21:13;17.70;59.10
4312;DHT22;2169;49.086;9.284;2022-10-03T13:23:44;17.70;59.20
4312;DHT22;2169;49.086;9.284;2022-10-03T13:26:16;17.70;59.30
4312;DHT22;2169;49.086;9.284;2022-10-03T13:29:06;17.80;59.00
4312;DHT22;2169;49.086;9.284;2022-10-03T13:31:47;17.80;58.60
4312;DHT22;2169;49.086;9.284;2022-10-03T13:34:23;17.80;58.30
4312;DHT22;2169;49.086;9.284;2022-10-03T13:36:54;17.80;58.30
4312;DHT22;2169;49.086;9.284;2022-10-03T13:39:25;17.80;58.10
4312;DHT22;2169;49.086;9.284;2022-10-03T13:42:10;17.80;57.60
4312;DHT22;2169;49.086;9.284;2022-10-03T13:44:42;17.90;57.40
4312;DHT22;2169;49.086;9.284;2022-10-03T13:47:27;17.90;57.30
4312;DHT22;2169;49.086;9.284;2022-10-03T13:49:58;18.00;57.30
4312;DHT22;2169;49.086;9.284;2022-10-03T13:52:35;18.00;56.80
4312;DHT22;2169;49.086;9.284;2022-10-03T13:55:22;18.00;56.50
4312;DHT22;2169;49.086;9.284;2022-10-03T13:58:16;18.00;56.30
4312;DHT22;2169;49.086;9.284;2022-10-03T14:01:00;18.00;56.20
4312;DHT22;2169;49.086;9.284;2022-10-03T14:03:36;18.00;56.20
4312;DHT22;2169;49.086;9.284;2022-10-03T14:06:22;18.10;56.00
4312;DHT22;2169;49.086;9.284;2022-10-03T14:11:56;18.20;56.00
4312;DHT22;2169;49.086;9.284;2022-10-03T14:14:42;18.20;55.80
4312;DHT22;2169;49.086;9.284;2022-10-03T14:17:20;18.20;55.50
4312;DHT22;2169;49.086;9.284;2022-10-03T14:20:05;18.20;55.30
4312;DHT22;2169;49.086;9.284;2022-10-03T14:22:42;18.20;55.00
4312;DHT22;2169;49.086;9.284;2022-10-03T14:25:25;18.20;55.10
4312;DHT22;2169;49.086;9.284;2022-10-03T14:27:55;18.20;55.10
4312;DHT22;2169;49.086;9.284;2022-10-03T14:30:30;18.20;54.90
4312;DHT22;2169;49.086;9.284;2022-10-03T14:33:24;18.20;54.40
4312;DHT22;2169;49.086;9.284;2022-10-03T14:36:00;18.10;54.10
4312;DHT22;2169;49.086;9.284;2022-10-03T14:38:49;18.00;54.00
4312;DHT22;2169;49.086;9.284;2022-10-03T14:41:48;18.00;54.20
4312;DHT22;2169;49.086;9.284;2022-10-03T14:44:27;18.10;54.20
4312;DHT22;2169;49.086;9.284;2022-10-03T14:46:59;18.00;54.10
4312;DHT22;2169;49.086;9.284;2022-10-03T14:49:30;18.00;54.10
4312;DHT22;2169;49.086;9.284;2022-10-03T14:52:02;18.00;54.30
4312;DHT22;2169;49.086;9.284;2022-10-03T14:54:31;18.10;54.50
4312;DHT22;2169;49.086;9.284;2022-10-03T14:57:13;18.10;54.60
4312;DHT22;2169;49.086;9.284;2022-10-03T14:59:51;18.00;54.60
4312;DHT22;2169;49.086;9.284;2022-10-03T15:02:27;18.00;54.70
4312;DHT22;2169;49.086;9.284;2022-10-03T15:05:02;18.00;55.00
4312;DHT22;2169;49.086;9.284;2022-10-03T15:07:35;18.00;55.20
4312;DHT22;2169;49.086;9.284;2022-10-03T15:10:08;18.00;55.50
4312;DHT22;2169;49.086;9.284;2022-10-03T15:12:41;18.00;55.70
4312;DHT22;2169;49.086;9.284;2022-10-03T15:15:14;18.10;56.10
4312;DHT22;2169;49.086;9.284;2022-10-03T15:17:47;18.00;56.30
4312;DHT22;2169;49.086;9.284;2022-10-03T15:20:19;18.10;56.70
4312;DHT22;2169;49.086;9.284;2022-10-03T15:22:52;18.00;56.90
4312;DHT22;2169;49.086;9.284;2022-10-03T15:25:25;18.00;57.10
4312;DHT22;2169;49.086;9.284;2022-10-03T15:27:55;18.00;57.30
4312;DHT22;2169;49.086;9.284;2022-10-03T15:30:27;18.00;57.40
4312;DHT22;2169;49.086;9.284;2022-10-03T15:33:03;18.00;57.40
4312;DHT22;2169;49.086;9.284;2022-10-03T15:35:35;18.00;57.20
4312;DHT22;2169;49.086;9.284;2022-10-03T15:38:10;18.00;57.10
4312;DHT22;2169;49.086;9.284;2022-10-03T15:40:41;18.00;57.00
4312;DHT22;2169;49.086;9.284;2022-10-03T15:43:25;17.90;56.80
4312;DHT22;2169;49.086;9.284;2022-10-03T15:45:53;17.90;56.60
4312;DHT22;2169;49.086;9.284;2022-10-03T15:48:21;17.80;56.50
4312;DHT22;2169;49.086;9.284;2022-10-03T15:50:52;17.80;56.30
4312;DHT22;2169;49.086;9.284;2022-10-03T15:53:23;17.80;56.30
4312;DHT22;2169;49.086;9.284;2022-10-03T15:55:52;17.70;56.20
4312;DHT22;2169;49.086;9.284;2022-10-03T15:58:26;17.70;56.20
4312;DHT22;2169;49.086;9.284;2022-10-03T16:01:03;17.70;56.30
4312;DHT22;2169;49.086;9.284;2022-10-03T16:03:35;17.70;56.40
4312;DHT22;2169;49.086;9.284;2022-10-03T16:06:10;17.60;56.40
4312;DHT22;2169;49.086;9.284;2022-10-03T16:08:49;17.60;56.40
4312;DHT22;2169;49.086;9.284;2022-10-03T16:11:20;17.60;56.50
4312;DHT22;2169;49.086;9.284;2022-10-03T16:13:58;17.60;56.60
4312;DHT22;2169;49.086;9.284;2022-10-03T16:16:34;17.60;56.60
4312;DHT22;2169;49.086;9.284;2022-10-03T16:19:19;17.50;56.40
4312;DHT22;2169;49.086;9.284;2022-10-03T16:21:52;17.50;56.50
4312;DHT22;2169;49.086;9.284;2022-10-03T16:24:28;17.50;56.80
4312;DHT22;2169;49.086;9.284;2022-10-03T16:27:05;17.50;57.20
4312;DHT22;2169;49.086;9.284;2022-10-03T16:29:35;17.50;57.50
4312;DHT22;2169;49.086;9.284;2022-10-03T16:32:05;17.40;57.70
4312;DHT22;2169;49.086;9.284;2022-10-03T16:34:35;17.40;58.10
4312;DHT22;2169;49.086;9.284;2022-10-03T16:37:03;17.30;58.30
4312;DHT22;2169;49.086;9.284;2022-10-03T16:39:42;17.30;58.50
4312;DHT22;2169;49.086;9.284;2022-10-03T16:42:15;17.20;58.60
4312;DHT22;2169;49.086;9.284;2022-10-03T16:44:49;17.20;58.70
4312;DHT22;2169;49.086;9.284;2022-10-03T16:47:28;17.10;58.90
4312;DHT22;2169;49.086;9.284;2022-10-03T16:53:20;16.90;59.20
4312;DHT22;2169;49.086;9.284;2022-10-03T16:55:51;16.80;59.30
4312;DHT22;2169;49.086;9.284;2022-10-03T16:58:22;16.70;59.40
4312;DHT22;2169;49.086;9.284;2022-10-03T17:00:56;16.70;59.50
4312;DHT22;2169;49.086;9.284;2022-10-03T17:03:29;16.70;59.70
4312;DHT22;2169;49.086;9.284;2022-10-03T17:05:59;16.60;59.60
4312;DHT22;2169;49.086;9.284;2022-10-03T17:08:31;16.50;59.50
4312;DHT22;2169;49.086;9.284;2022-10-03T17:11:03;16.50;59.50
4312;DHT22;2169;49.086;9.284;2022-10-03T17:13:38;16.40;59.50
4312;DHT22;2169;49.086;9.284;2022-10-03T17:16:12;16.30;59.50
4312;DHT22;2169;49.086;9.284;2022-10-03T17:18:42;16.30;59.50
4312;DHT22;2169;49.086;9.284;2022-10-03T17:21:19;16.20;59.50
4312;DHT22;2169;49.086;9.284;2022-10-03T17:23:55;16.20;59.60
4312;DHT22;2169;49.086;9.284;2022-10-03T17:26:28;16.10;59.60
4312;DHT22;2169;49.086;9.284;2022-10-03T17:29:03;16.00;59.50
4312;DHT22;2169;49.086;9.284;2022-10-03T17:31:37;15.90;59.60
4312;DHT22;2169;49.086;9.284;2022-10-03T17:34:11;16.00;59.70
4312;DHT22;2169;49.086;9.284;2022-10-03T17:37:13;15.70;59.70
4312;DHT22;2169;49.086;9.284;2022-10-03T17:39:49;15.60;59.90
4312;DHT22;2169;49.086;9.284;2022-10-03T17:42:35;15.50;60.10
4312;DHT22;2169;49.086;9.284;2022-10-03T17:45:27;15.40;60.10
4312;DHT22;2169;49.086;9.284;2022-10-03T17:48:03;15.30;60.10
4312;DHT22;2169;49.086;9.284;2022-10-03T17:50:36;15.20;60.20
4312;DHT22;2169;49.086;9.284;2022-10-03T17:53:04;15.10;60.40
4312;DHT22;2169;49.086;9.284;2022-10-03T17:55:37;15.00;60.40
4312;DHT22;2169;49.086;9.284;2022-10-03T17:58:06;15.00;60.60
4312;DHT22;2169;49.086;9.284;2022-10-03T18:00:54;15.00;60.70
4312;DHT22;2169;49.086;9.284;2022-10-03T18:03:25;14.90;60.70
4312;DHT22;2169;49.086;9.284;2022-10-03T18:05:57;14.80;60.80
4312;DHT22;2169;49.086;9.284;2022-10-03T18:08:27;14.80;60.80
4312;DHT22;2169;49.086;9.284;2022-10-03T18:10:57;14.60;60.80
4312;DHT22;2169;49.086;9.284;2022-10-03T18:13:30;14.60;60.90
4312;DHT22;2169;49.086;9.284;2022-10-03T18:16:17;14.50;61.70
4312;DHT22;2169;49.086;9.284;2022-10-03T18:19:01;14.50;61.30
4312;DHT22;2169;49.086;9.284;2022-10-03T18:21:39;14.40;61.40
4312;DHT22;2169;49.086;9.284;2022-10-03T18:24:21;14.30;61.40
4312;DHT22;2169;49.086;9.284;2022-10-03T18:27:01;14.30;61.50
4312;DHT22;2169;49.086;9.284;2022-10-03T18:29:34;14.20;61.60
4312;DHT22;2169;49.086;9.284;2022-10-03T18:32:11;14.20;61.70
4312;DHT22;2169;49.086;9.284;2022-10-03T18:34:43;14.10;61.60
4312;DHT22;2169;49.086;9.284;2022-10-03T18:37:48;14.10;61.80
4312;DHT22;2169;49.086;9.284;2022-10-03T18:40:19;14.00;61.80
4312;DHT22;2169;49.086;9.284;2022-10-03T18:42:49;13.90;61.80
4312;DHT22;2169;49.086;9.284;2022-10-03T18:45:20;13.80;61.80
4312;DHT22;2169;49.086;9.284;2022-10-03T18:47:51;13.80;62.00
4312;DHT22;2169;49.086;9.284;2022-10-03T18:50:22;13.70;62.10
4312;DHT22;2169;49.086;9.284;2022-10-03T18:52:53;13.70;62.20
4312;DHT22;2169;49.086;9.284;2022-10-03T18:55:25;13.60;62.10
4312;DHT22;2169;49.086;9.284;2022-10-03T18:57:58;13.60;62.20
4312;DHT22;2169;49.086;9.284;2022-10-03T19:00:28;13.50;62.20
4312;DHT22;2169;49.086;9.284;2022-10-03T19:03:01;13.40;62.20
4312;DHT22;2169;49.086;9.284;2022-10-03T19:05:31;13.40;62.30
4312;DHT22;2169;49.086;9.284;2022-10-03T19:08:08;13.30;62.50
4312;DHT22;2169;49.086;9.284;2022-10-03T19:10:41;13.30;62.60
4312;DHT22;2169;49.086;9.284;2022-10-03T19:13:27;13.20;62.60
4312;DHT22;2169;49.086;9.284;2022-10-03T19:16:15;13.20;62.70
4312;DHT22;2169;49.086;9.284;2022-10-03T19:18:54;13.20;62.70
4312;DHT22;2169;49.086;9.284;2022-10-03T19:21:23;13.10;62.80
4312;DHT22;2169;49.086;9.284;2022-10-03T19:23:56;13.00;62.80
4312;DHT22;2169;49.086;9.284;2022-10-03T19:26:29;13.00;62.90
4312;DHT22;2169;49.086;9.284;2022-10-03T19:29:02;13.00;62.90
4312;DHT22;2169;49.086;9.284;2022-10-03T19:31:34;12.90;62.90
4312;DHT22;2169;49.086;9.284;2022-10-03T19:34:03;12.90;62.90
4312;DHT22;2169;49.086;9.284;2022-10-03T19:36:33;12.80;62.90
4312;DHT22;2169;49.086;9.284;2022-10-03T19:39:02;12.70;62.90
4312;DHT22;2169;49.086;9.284;2022-10-03T19:41:32;12.60;62.80
4312;DHT22;2169;49.086;9.284;2022-10-03T19:44:04;12.60;63.00
4312;DHT22;2169;49.086;9.284;2022-10-03T19:46:45;12.50;63.10
4312;DHT22;2169;49.086;9.284;2022-10-03T19:49:24;12.50;63.20
4312;DHT22;2169;49.086;9.284;2022-10-03T19:52:10;12.40;63.20
4312;DHT22;2169;49.086;9.284;2022-10-03T19:54:45;12.40;63.30
4312;DHT22;2169;49.086;9.284;2022-10-03T19:57:15;12.30;63.30
4312;DHT22;2169;49.086;9.284;2022-10-03T19:59:47;12.20;63.40